GLD1620 SKCG-SEGU
Flight info
| Callsign | GLD1620 |
|---|---|
| Flight time | N/A |
| Altitude | 38000 |
| Route | CTG2D CTG ANRON UQ102 PUKAM ENSOL MIDEX UW1 DAKAB DAKAB1 |
| Aircraft | A20N/M-SDE2E3FGHIRWXY/LB1 |
Departure
| Time | N/A |
|---|---|
| Airport | Rafael Nuñez International Airport (SKCG) |
Arrival
| Time | 2026-04-18 04:20 |
|---|---|
| Airport | José Joaquín de Olmedo International Airport (SEGU) |
| Time | Latitude | Longitude | Altitude | Speed | Heading |
|---|---|---|---|---|---|
| 2026-04-18 03:34 | 1.64702 | -78.57757 | 37072 ft | 456 kts | 199° |
| 2026-04-18 03:34 | 1.58775 | -78.59831 | 37074 ft | 456 kts | 199° |
| 2026-04-18 03:35 | 1.52761 | -78.61935 | 37087 ft | 456 kts | 199° |
| 2026-04-18 03:35 | 1.46733 | -78.64044 | 37097 ft | 456 kts | 199° |
| 2026-04-18 03:36 | 1.40751 | -78.66138 | 37106 ft | 456 kts | 199° |
| 2026-04-18 03:36 | 1.34761 | -78.68233 | 37107 ft | 456 kts | 199° |
| 2026-04-18 03:37 | 1.28749 | -78.70276 | 37113 ft | 455 kts | 198° |
| 2026-04-18 03:37 | 1.22765 | -78.72199 | 37123 ft | 455 kts | 198° |
| 2026-04-18 03:38 | 1.16736 | -78.74149 | 37127 ft | 455 kts | 198° |
| 2026-04-18 03:38 | 1.10712 | -78.76109 | 37135 ft | 456 kts | 198° |
| 2026-04-18 03:39 | 1.04681 | -78.78075 | 37136 ft | 456 kts | 198° |
| 2026-04-18 03:39 | 0.98652 | -78.80039 | 37139 ft | 456 kts | 198° |
| 2026-04-18 03:40 | 0.92662 | -78.81991 | 37153 ft | 456 kts | 198° |
| 2026-04-18 03:40 | 0.86569 | -78.83976 | 37152 ft | 457 kts | 198° |
| 2026-04-18 03:41 | 0.80562 | -78.85933 | 37164 ft | 457 kts | 198° |
| 2026-04-18 03:41 | 0.74591 | -78.87878 | 37180 ft | 457 kts | 198° |
| 2026-04-18 03:42 | 0.68533 | -78.89851 | 37187 ft | 458 kts | 198° |
| 2026-04-18 03:42 | 0.62475 | -78.91824 | 37198 ft | 458 kts | 198° |
| 2026-04-18 03:43 | 0.56432 | -78.93793 | 37205 ft | 458 kts | 198° |
| 2026-04-18 03:43 | 0.50412 | -78.95754 | 37205 ft | 458 kts | 198° |
| 2026-04-18 03:44 | 0.44360 | -78.97725 | 37207 ft | 458 kts | 198° |
| 2026-04-18 03:44 | 0.38294 | -78.99701 | 37211 ft | 458 kts | 198° |
| 2026-04-18 03:45 | 0.32238 | -79.01673 | 37214 ft | 458 kts | 198° |
| 2026-04-18 03:45 | 0.26178 | -79.03647 | 37209 ft | 458 kts | 198° |
| 2026-04-18 03:46 | 0.20119 | -79.05620 | 37213 ft | 458 kts | 198° |
| 2026-04-18 03:46 | 0.14052 | -79.07596 | 37210 ft | 459 kts | 198° |
| 2026-04-18 03:47 | 0.07981 | -79.09574 | 37223 ft | 459 kts | 198° |
| 2026-04-18 03:47 | 0.02943 | -79.11214 | 37219 ft | 459 kts | 198° |
| 2026-04-18 03:48 | -0.03138 | -79.13195 | 37228 ft | 460 kts | 198° |
| 2026-04-18 03:48 | -0.09207 | -79.15205 | 37235 ft | 460 kts | 199° |
| 2026-04-18 03:49 | -0.15240 | -79.17345 | 37238 ft | 460 kts | 199° |
| 2026-04-18 03:49 | -0.21282 | -79.19486 | 37235 ft | 461 kts | 199° |
| 2026-04-18 03:50 | -0.27338 | -79.21615 | 37241 ft | 461 kts | 199° |
| 2026-04-18 03:50 | -0.33384 | -79.23737 | 37233 ft | 461 kts | 199° |
| 2026-04-18 03:51 | -0.39442 | -79.25863 | 37219 ft | 461 kts | 199° |
| 2026-04-18 03:51 | -0.45379 | -79.27947 | 37036 ft | 442 kts | 199° |
| 2026-04-18 03:52 | -0.48222 | -79.28945 | 36596 ft | 436 kts | 199° |
| 2026-04-18 03:52 | -0.51080 | -79.29948 | 36039 ft | 433 kts | 199° |
| 2026-04-18 03:52 | -0.53918 | -79.30944 | 35518 ft | 430 kts | 199° |
| 2026-04-18 03:52 | -0.56718 | -79.31926 | 35020 ft | 426 kts | 199° |
| 2026-04-18 03:53 | -0.59505 | -79.32904 | 34519 ft | 423 kts | 199° |
| 2026-04-18 03:53 | -0.62268 | -79.33874 | 34031 ft | 420 kts | 199° |
| 2026-04-18 03:53 | -0.65017 | -79.34839 | 33491 ft | 416 kts | 199° |
| 2026-04-18 03:53 | -0.67736 | -79.35795 | 32985 ft | 412 kts | 199° |
| 2026-04-18 03:54 | -0.70426 | -79.36739 | 32463 ft | 408 kts | 199° |
| 2026-04-18 03:54 | -0.73065 | -79.37666 | 31965 ft | 405 kts | 199° |
| 2026-04-18 03:54 | -0.75709 | -79.38594 | 31469 ft | 402 kts | 199° |
| 2026-04-18 03:54 | -0.78370 | -79.39529 | 30979 ft | 398 kts | 199° |
| 2026-04-18 03:55 | -0.80867 | -79.40406 | 30513 ft | 395 kts | 199° |
| 2026-04-18 03:55 | -0.83511 | -79.41334 | 30017 ft | 392 kts | 199° |
| 2026-04-18 03:55 | -0.86083 | -79.42236 | 29495 ft | 388 kts | 199° |
| 2026-04-18 03:55 | -0.88605 | -79.43119 | 28993 ft | 384 kts | 199° |
| 2026-04-18 03:56 | -0.91125 | -79.44002 | 28489 ft | 380 kts | 199° |
| 2026-04-18 03:56 | -0.93602 | -79.44869 | 27990 ft | 377 kts | 199° |
| 2026-04-18 03:56 | -0.96066 | -79.45733 | 27511 ft | 373 kts | 199° |
| 2026-04-18 03:56 | -0.98501 | -79.46586 | 27022 ft | 370 kts | 199° |
| 2026-04-18 03:57 | -1.03332 | -79.48279 | 26067 ft | 364 kts | 199° |
| 2026-04-18 03:57 | -1.05714 | -79.49114 | 25594 ft | 362 kts | 199° |
| 2026-04-18 03:57 | -1.08075 | -79.49941 | 25163 ft | 359 kts | 199° |
| 2026-04-18 03:58 | -1.10423 | -79.50764 | 24724 ft | 356 kts | 199° |
| 2026-04-18 03:58 | -1.12753 | -79.51581 | 24292 ft | 353 kts | 199° |
| 2026-04-18 03:58 | -1.15067 | -79.52392 | 23866 ft | 351 kts | 199° |
| 2026-04-18 03:58 | -1.17355 | -79.53194 | 23411 ft | 348 kts | 199° |
| 2026-04-18 03:59 | -1.19636 | -79.53993 | 22913 ft | 345 kts | 200° |
| 2026-04-18 03:59 | -1.21893 | -79.54785 | 22446 ft | 343 kts | 200° |
| 2026-04-18 03:59 | -1.24129 | -79.55568 | 21977 ft | 340 kts | 200° |
| 2026-04-18 03:59 | -1.26361 | -79.56351 | 21528 ft | 338 kts | 200° |
| 2026-04-18 04:00 | -1.28564 | -79.57123 | 21057 ft | 335 kts | 200° |
| 2026-04-18 04:00 | -1.30738 | -79.57885 | 20621 ft | 333 kts | 200° |
| 2026-04-18 04:00 | -1.32914 | -79.58648 | 20182 ft | 331 kts | 200° |
| 2026-04-18 04:00 | -1.35108 | -79.59417 | 19748 ft | 329 kts | 200° |
| 2026-04-18 04:01 | -1.37233 | -79.60161 | 19326 ft | 327 kts | 200° |
| 2026-04-18 04:01 | -1.39373 | -79.60912 | 18921 ft | 324 kts | 200° |
| 2026-04-18 04:01 | -1.41493 | -79.61655 | 18511 ft | 322 kts | 200° |
| 2026-04-18 04:01 | -1.43601 | -79.62394 | 18087 ft | 320 kts | 200° |
| 2026-04-18 04:02 | -1.45696 | -79.63128 | 17643 ft | 318 kts | 200° |
| 2026-04-18 04:02 | -1.47772 | -79.63856 | 17221 ft | 315 kts | 200° |
| 2026-04-18 04:02 | -1.49822 | -79.64604 | 16785 ft | 312 kts | 204° |
| 2026-04-18 04:02 | -1.51736 | -79.65580 | 16350 ft | 309 kts | 209° |
| 2026-04-18 04:03 | -1.53626 | -79.66615 | 15936 ft | 307 kts | 209° |
| 2026-04-18 04:03 | -1.55491 | -79.67628 | 15518 ft | 305 kts | 209° |
| 2026-04-18 04:03 | -1.57346 | -79.68633 | 15115 ft | 302 kts | 209° |
| 2026-04-18 04:03 | -1.59190 | -79.69630 | 14715 ft | 300 kts | 209° |
| 2026-04-18 04:04 | -1.60991 | -79.70605 | 14305 ft | 298 kts | 209° |
| 2026-04-18 04:04 | -1.62809 | -79.71590 | 13935 ft | 295 kts | 209° |
| 2026-04-18 04:04 | -1.64608 | -79.72563 | 13522 ft | 293 kts | 209° |
| 2026-04-18 04:04 | -1.66399 | -79.73534 | 13069 ft | 291 kts | 209° |
| 2026-04-18 04:05 | -1.68168 | -79.74492 | 12644 ft | 289 kts | 209° |
| 2026-04-18 04:05 | -1.69936 | -79.75450 | 12202 ft | 288 kts | 209° |
| 2026-04-18 04:05 | -1.71693 | -79.76402 | 11783 ft | 286 kts | 209° |
| 2026-04-18 04:05 | -1.73435 | -79.77346 | 11370 ft | 284 kts | 209° |
| 2026-04-18 04:06 | -1.75174 | -79.78288 | 10953 ft | 283 kts | 209° |
| 2026-04-18 04:06 | -1.76890 | -79.79218 | 10541 ft | 282 kts | 208° |
| 2026-04-18 04:06 | -1.78612 | -79.80150 | 10142 ft | 280 kts | 208° |
| 2026-04-18 04:06 | -1.80294 | -79.81062 | 9746 ft | 278 kts | 208° |
| 2026-04-18 04:07 | -1.81995 | -79.81983 | 9313 ft | 277 kts | 208° |
| 2026-04-18 04:07 | -1.83682 | -79.82897 | 8877 ft | 275 kts | 208° |
| 2026-04-18 04:07 | -1.85359 | -79.83805 | 8459 ft | 274 kts | 208° |
| 2026-04-18 04:07 | -1.87024 | -79.84708 | 8064 ft | 272 kts | 208° |
| 2026-04-18 04:08 | -1.88686 | -79.85608 | 7659 ft | 271 kts | 208° |
| 2026-04-18 04:08 | -1.90334 | -79.86501 | 7265 ft | 269 kts | 208° |
| 2026-04-18 04:08 | -1.91980 | -79.87392 | 6862 ft | 268 kts | 208° |
| 2026-04-18 04:08 | -1.93613 | -79.88278 | 6490 ft | 267 kts | 208° |
| 2026-04-18 04:09 | -1.95236 | -79.89157 | 6110 ft | 265 kts | 208° |
| 2026-04-18 04:09 | -1.96852 | -79.90033 | 5740 ft | 263 kts | 208° |
| 2026-04-18 04:09 | -1.98403 | -79.90874 | 5621 ft | 250 kts | 208° |
| 2026-04-18 04:09 | -1.99897 | -79.91684 | 5530 ft | 239 kts | 208° |
| 2026-04-18 04:10 | -2.01326 | -79.92459 | 5441 ft | 228 kts | 208° |
| 2026-04-18 04:10 | -2.02693 | -79.93200 | 5334 ft | 221 kts | 208° |
| 2026-04-18 04:10 | -2.04051 | -79.93935 | 5011 ft | 224 kts | 208° |
| 2026-04-18 04:10 | -2.05439 | -79.94687 | 4656 ft | 229 kts | 207° |
| 2026-04-18 04:11 | -2.06855 | -79.95454 | 4288 ft | 233 kts | 208° |
| 2026-04-18 04:11 | -2.08291 | -79.96232 | 3922 ft | 236 kts | 208° |
| 2026-04-18 04:11 | -2.09739 | -79.97017 | 3565 ft | 238 kts | 208° |
| 2026-04-18 04:11 | -2.11202 | -79.97809 | 3213 ft | 239 kts | 208° |
| 2026-04-18 04:12 | -2.12629 | -79.98582 | 3041 ft | 232 kts | 208° |
| 2026-04-18 04:12 | -2.14034 | -79.99344 | 3001 ft | 220 kts | 208° |
| 2026-04-18 04:12 | -2.15333 | -80.00049 | 2996 ft | 208 kts | 208° |
| 2026-04-18 04:12 | -2.16603 | -80.00737 | 3000 ft | 212 kts | 208° |
| 2026-04-18 04:13 | -2.17888 | -80.01434 | 2988 ft | 208 kts | 208° |
| 2026-04-18 04:13 | -2.19145 | -80.02114 | 2931 ft | 201 kts | 208° |
| 2026-04-18 04:13 | -2.20354 | -80.02769 | 2812 ft | 197 kts | 208° |
| 2026-04-18 04:13 | -2.21553 | -80.03419 | 2654 ft | 195 kts | 208° |
| 2026-04-18 04:14 | -2.22743 | -80.04063 | 2505 ft | 192 kts | 208° |
| 2026-04-18 04:14 | -2.23924 | -80.04704 | 2500 ft | 196 kts | 208° |
| 2026-04-18 04:14 | -2.25193 | -80.05125 | 2498 ft | 190 kts | 182° |
| 2026-04-18 04:14 | -2.26438 | -80.04845 | 2497 ft | 184 kts | 152° |
| 2026-04-18 04:15 | -2.27366 | -80.03989 | 2498 ft | 188 kts | 123° |
| 2026-04-18 04:15 | -2.28015 | -80.02832 | 2492 ft | 188 kts | 121° |
| 2026-04-18 04:15 | -2.28652 | -80.01706 | 2502 ft | 189 kts | 121° |
| 2026-04-18 04:15 | -2.29305 | -80.00580 | 2495 ft | 187 kts | 122° |
| 2026-04-18 04:16 | -2.29966 | -79.99453 | 2503 ft | 188 kts | 122° |
| 2026-04-18 04:16 | -2.30504 | -79.98290 | 2493 ft | 188 kts | 101° |
| 2026-04-18 04:16 | -2.30279 | -79.97006 | 2501 ft | 193 kts | 61° |
| 2026-04-18 04:16 | -2.29320 | -79.96101 | 2506 ft | 191 kts | 28° |
| 2026-04-18 04:17 | -2.28128 | -79.95481 | 2507 ft | 192 kts | 27° |
| 2026-04-18 04:17 | -2.26962 | -79.94844 | 2499 ft | 196 kts | 29° |
| 2026-04-18 04:17 | -2.25797 | -79.94180 | 2413 ft | 189 kts | 30° |
| 2026-04-18 04:17 | -2.24693 | -79.93517 | 2283 ft | 182 kts | 31° |
| 2026-04-18 04:18 | -2.23632 | -79.92876 | 2041 ft | 176 kts | 30° |
| 2026-04-18 04:18 | -2.22563 | -79.92253 | 1730 ft | 180 kts | 29° |
| 2026-04-18 04:18 | -2.21475 | -79.91618 | 1391 ft | 186 kts | 29° |
| 2026-04-18 04:18 | -2.20319 | -79.90968 | 1079 ft | 189 kts | 28° |
| 2026-04-18 04:19 | -2.19193 | -79.90364 | 782 ft | 182 kts | 27° |
| 2026-04-18 04:19 | -2.18100 | -79.89711 | 472 ft | 183 kts | 32° |
| 2026-04-18 04:19 | -2.16962 | -79.89088 | 166 ft | 187 kts | 30° |
| 2026-04-18 04:19 | -2.15910 | -79.88464 | 27 ft | 140 kts | 35° |
| 2026-04-18 04:20 | -2.15379 | -79.88163 | 26 ft | 44 kts | 27° |
| 2026-04-18 04:20 | -2.15283 | -79.88193 | 27 ft | 8 kts | 291° |
| 2026-04-18 04:20 | -2.15282 | -79.88194 | 28 ft | 0 kts | 294° |
| 2026-04-18 04:21 | -2.15273 | -79.88215 | 28 ft | 10 kts | 294° |
| 2026-04-18 04:21 | -2.15226 | -79.88316 | 28 ft | 21 kts | 298° |
| 2026-04-18 04:21 | -2.15139 | -79.88399 | 28 ft | 0 kts | 359° |
| 2026-04-18 04:21 | -2.15096 | -79.88375 | 28 ft | 14 kts | 25° |
| 2026-04-18 04:22 | -2.14980 | -79.88350 | 28 ft | 18 kts | 335° |
| 2026-04-18 04:22 | -2.14956 | -79.88378 | 28 ft | 5 kts | 295° |
| 2026-04-18 04:22 | -2.14949 | -79.88390 | 28 ft | 0 kts | 300° |